Weather at Brazil Clay County Airport

Public forecast

Using degrees Fahrenheit for public forecast. Weather courtesy of forecast.io.

Closest aviation weather report (METAR) to Brazil Clay County Airport

Closest report is Terre Haute Regional Airport, Hulman Field, 9.8 nm (18.1 km) W.

2024/06/19 19:53 (retrieved 18 minutes ago)

KHUF 191953Z VRB03KT 10SM FEW055 33/21 A3021 RMK AO2 SLP225 T03280206

Closest aviation forecast (TAF) to Brazil Clay County Airport

Closest forecast is Terre Haute Regional Airport, Hulman Field, 9.8 nm (18.1 km) W.

2024/06/19 18:22 (retrieved 2 hours ago)

TAF KHUF 191720Z 1918/2018 VRB04KT P6SM VCSH SCT040 FM200300 00000KT P6SM SCT250 FM200800 00000KT 3SM BR BCFG FEW004 SCT250 FM201300 22004KT P6SM FEW050 SCT250